createdAt,value
2023-03-11T00:00:26.732Z,95062.28
2023-03-11T00:02:28.188Z,95064.28
2023-03-11T00:04:29.583Z,95064.56
2023-03-11T00:06:30.962Z,95057.44
2023-03-11T00:08:32.289Z,95064.75
2023-03-11T00:10:33.629Z,95061.03
2023-03-11T00:12:35.042Z,95065.00
2023-03-11T00:14:36.379Z,95068.25
2023-03-11T00:16:37.839Z,95078.72
2023-03-11T00:18:39.225Z,95067.56
2023-03-11T00:20:40.610Z,95073.59
2023-03-11T00:22:41.987Z,95075.44
2023-03-11T00:24:43.317Z,95076.28
2023-03-11T00:26:44.697Z,95082.53
2023-03-11T00:28:46.017Z,95085.28
2023-03-11T00:30:47.405Z,95116.06
2023-03-11T00:32:48.824Z,95138.38
2023-03-11T00:34:50.176Z,95096.19
2023-03-11T00:36:51.540Z,95149.31
2023-03-11T00:38:52.992Z,95160.88
2023-03-11T00:40:54.372Z,95148.44
2023-03-11T00:42:55.714Z,95141.09
2023-03-11T00:44:57.178Z,95154.78
2023-03-11T00:46:58.580Z,95154.16
2023-03-11T00:48:59.913Z,95168.91
2023-03-11T00:51:01.245Z,95156.22
2023-03-11T00:53:02.649Z,95169.13
2023-03-11T00:55:04.000Z,95164.72
2023-03-11T00:57:05.342Z,95160.50
2023-03-11T00:59:06.721Z,95155.19
2023-03-11T01:01:08.355Z,95161.53
2023-03-11T01:03:09.829Z,95156.84
2023-03-11T01:05:11.178Z,95145.19
2023-03-11T01:07:12.498Z,95154.00
2023-03-11T01:09:13.862Z,95145.72
2023-03-11T01:11:15.212Z,95157.91
2023-03-11T01:13:16.577Z,95151.16
2023-03-11T01:15:17.915Z,95139.31
2023-03-11T01:17:19.259Z,95145.34
2023-03-11T01:19:20.628Z,95153.84
2023-03-11T01:21:21.968Z,95143.72
2023-03-11T01:23:23.296Z,95153.91
2023-03-11T01:25:24.687Z,95149.03
2023-03-11T01:27:26.058Z,95143.81
2023-03-11T01:29:27.381Z,95143.72
2023-03-11T01:31:28.816Z,95156.59
2023-03-11T01:33:30.231Z,95151.38
2023-03-11T01:35:31.656Z,95161.56
2023-03-11T01:37:33.052Z,95169.16
2023-03-11T01:39:35.246Z,95173.22
2023-03-11T01:41:36.576Z,95157.66
2023-03-11T01:43:40.997Z,95165.88
2023-03-11T01:45:42.404Z,95171.47
2023-03-11T01:47:43.817Z,95192.38
2023-03-11T01:49:45.148Z,95171.03
2023-03-11T01:51:47.001Z,95186.13
2023-03-11T01:53:48.377Z,95188.59
2023-03-11T01:55:49.797Z,95203.81
2023-03-11T01:57:51.176Z,95190.41
2023-03-11T01:59:52.579Z,95191.13
2023-03-11T02:01:53.982Z,95209.69
2023-03-11T02:03:55.335Z,95201.94
2023-03-11T02:05:56.677Z,95210.72
2023-03-11T02:07:58.085Z,95204.81
2023-03-11T02:09:59.455Z,95224.66
2023-03-11T02:12:00.806Z,95219.75
2023-03-11T02:14:02.185Z,95221.00
2023-03-11T02:16:03.672Z,95235.81
2023-03-11T02:18:05.117Z,95223.94
2023-03-11T02:20:06.513Z,95228.47
2023-03-11T02:22:07.849Z,95220.06
2023-03-11T02:24:09.279Z,95233.06
2023-03-11T02:26:10.661Z,95235.41
2023-03-11T02:28:12.003Z,95249.69
2023-03-11T02:30:13.330Z,95244.78
2023-03-11T02:32:14.741Z,95266.16
2023-03-11T02:34:16.165Z,95252.69
2023-03-11T02:36:17.493Z,95265.47
2023-03-11T02:38:18.972Z,95260.94
2023-03-11T02:40:20.310Z,95266.88
2023-03-11T02:42:21.697Z,95268.00
2023-03-11T02:44:23.037Z,95272.09
2023-03-11T02:46:24.439Z,95268.72
2023-03-11T02:48:25.869Z,95280.78
2023-03-11T02:50:27.218Z,95279.97
2023-03-11T02:52:28.552Z,95293.44
2023-03-11T02:54:29.872Z,95291.78
2023-03-11T02:56:31.212Z,95303.84
2023-03-11T02:58:32.636Z,95308.88
2023-03-11T03:00:34.588Z,95320.00
2023-03-11T03:02:35.968Z,95313.25
2023-03-11T03:04:37.301Z,95320.13
2023-03-11T03:06:38.682Z,95328.38
2023-03-11T03:08:40.078Z,95325.00
2023-03-11T03:10:41.440Z,95337.47
2023-03-11T03:12:42.856Z,95344.81
2023-03-11T03:14:44.237Z,95354.03
2023-03-11T03:16:45.708Z,95350.56
2023-03-11T03:18:47.197Z,95354.66
2023-03-11T03:20:48.571Z,95359.84
2023-03-11T03:22:50.462Z,95363.84
2023-03-11T03:24:52.884Z,95371.19
2023-03-11T03:26:54.193Z,95371.59
2023-03-11T03:28:55.596Z,95384.63
2023-03-11T03:30:56.972Z,95386.97
2023-03-11T03:32:58.315Z,95394.66
2023-03-11T03:34:59.819Z,95404.06
2023-03-11T03:37:01.160Z,95415.91
2023-03-11T03:39:02.592Z,95404.06
2023-03-11T03:41:03.942Z,95414.16
2023-03-11T03:43:05.343Z,95426.13
2023-03-11T03:45:06.685Z,95409.06
2023-03-11T03:47:08.204Z,95425.22
2023-03-11T03:49:09.574Z,95430.19
2023-03-11T03:51:10.912Z,95424.28
2023-03-11T03:53:12.297Z,95434.41
2023-03-11T03:55:13.634Z,95451.47
2023-03-11T03:57:14.961Z,95454.00
2023-03-11T03:59:16.345Z,95203.91
2023-03-11T04:01:17.766Z,95471.88
2023-03-11T04:03:19.167Z,95481.19
2023-03-11T04:05:20.573Z,95480.38
2023-03-11T04:07:21.944Z,95485.28
2023-03-11T04:09:23.360Z,95479.25
2023-03-11T04:11:24.704Z,95499.69
2023-03-11T04:13:26.101Z,95493.03
2023-03-11T04:15:27.430Z,95503.34
2023-03-11T04:17:28.788Z,95496.59
2023-03-11T04:19:30.168Z,95509.28
2023-03-11T04:21:31.504Z,95518.56
2023-03-11T04:23:32.927Z,95521.94
2023-03-11T04:25:34.428Z,95531.06
2023-03-11T04:27:35.783Z,95528.09
2023-03-11T04:29:37.164Z,95547.63
2023-03-11T04:31:38.499Z,95545.31
2023-03-11T04:33:39.823Z,95551.56
2023-03-11T04:35:41.253Z,95558.22
2023-03-11T04:37:42.584Z,95565.88
2023-03-11T04:39:43.964Z,95569.25
2023-03-11T04:41:45.360Z,95563.31
2023-03-11T04:43:46.696Z,95590.53
2023-03-11T04:45:48.028Z,95576.94
2023-03-11T04:47:49.414Z,95577.75
2023-03-11T04:49:50.763Z,95583.56
2023-03-11T04:51:52.103Z,95608.13
2023-03-11T04:53:53.585Z,95604.22
2023-03-11T04:55:55.048Z,95599.41
2023-03-11T04:57:56.425Z,95628.41
2023-03-11T04:59:57.750Z,95620.94
2023-03-11T05:01:59.121Z,95622.97
2023-03-11T05:04:00.544Z,95639.22
2023-03-11T05:06:01.880Z,95658.91
2023-03-11T05:08:03.262Z,95657.28
2023-03-11T05:10:04.623Z,95660.03
2023-03-11T05:12:06.067Z,95655.03
2023-03-11T05:14:07.486Z,95657.56
2023-03-11T05:16:08.943Z,95691.69
2023-03-11T05:18:10.408Z,95684.03
2023-03-11T05:20:11.812Z,95688.84
2023-03-11T05:22:13.198Z,95707.56
2023-03-11T05:24:14.592Z,95709.28
2023-03-11T05:26:15.952Z,95712.84
2023-03-11T05:28:17.280Z,95724.78
2023-03-11T05:30:18.783Z,95729.91
2023-03-11T05:32:20.164Z,95742.78
2023-03-11T05:37:05.913Z,95756.19
2023-03-11T05:39:07.237Z,95758.63
2023-03-11T05:41:08.572Z,95768.75
2023-03-11T05:43:10.033Z,95780.81
2023-03-11T05:45:11.478Z,95780.72
2023-03-11T05:47:12.827Z,95788.28
2023-03-11T05:49:14.170Z,95795.94
2023-03-11T05:51:15.572Z,95807.00
2023-03-11T05:53:16.910Z,95798.50
2023-03-11T05:55:18.260Z,95807.44
2023-03-11T05:57:19.642Z,95807.44
2023-03-11T05:59:21.117Z,95815.84
2023-03-11T06:01:22.439Z,95823.69
2023-03-11T06:03:23.807Z,95831.53
2023-03-11T06:05:25.195Z,95845.31
2023-03-11T06:07:26.573Z,95858.28
2023-03-11T06:09:28.072Z,95852.97
2023-03-11T06:11:29.408Z,95859.00
2023-03-11T06:13:30.749Z,95877.81
2023-03-11T06:15:32.078Z,95881.38
2023-03-11T06:17:33.462Z,95883.25
2023-03-11T06:19:34.841Z,95886.72
2023-03-11T06:21:39.203Z,95909.63
2023-03-11T06:23:40.771Z,95899.03
2023-03-11T06:25:42.180Z,95900.34
2023-03-11T06:27:44.643Z,95919.84
2023-03-11T06:29:48.357Z,95928.53
2023-03-11T06:31:56.141Z,95924.31
2023-03-11T06:33:57.600Z,95947.19
2023-03-11T06:35:59.060Z,95938.81
2023-03-11T06:38:00.462Z,95949.94
2023-03-11T06:40:01.814Z,95950.75
2023-03-11T06:42:03.276Z,95970.38
2023-03-11T06:44:05.034Z,95978.84
2023-03-11T06:46:06.382Z,95988.28
2023-03-11T06:48:07.753Z,95977.13
2023-03-11T06:50:09.355Z,96003.31
2023-03-11T06:52:10.712Z,95997.31
2023-03-11T06:54:12.060Z,96004.88
2023-03-11T06:56:13.447Z,96012.38
2023-03-11T06:58:14.953Z,96015.66
2023-03-11T07:00:16.525Z,96022.50
2023-03-11T07:02:17.893Z,96031.00
2023-03-11T07:04:19.260Z,96043.78
2023-03-11T07:06:20.730Z,96038.75
2023-03-11T07:08:23.109Z,96055.16
2023-03-11T07:10:24.484Z,96061.25
2023-03-11T07:12:25.815Z,96066.78
2023-03-11T07:14:27.250Z,96062.66
2023-03-11T07:16:28.599Z,96073.16
2023-03-11T07:18:30.073Z,96088.63
2023-03-11T07:20:31.464Z,96077.59
2023-03-11T07:22:32.822Z,96083.69
2023-03-11T07:24:34.144Z,96092.25
2023-03-11T07:26:35.512Z,96101.72
2023-03-11T07:28:36.933Z,96108.66
2023-03-11T07:30:38.256Z,96123.97
2023-03-11T07:32:39.684Z,96125.53
2023-03-11T07:34:41.050Z,96122.06
2023-03-11T07:36:42.683Z,96134.09
2023-03-11T07:38:44.054Z,96132.44
2023-03-11T07:40:45.387Z,96137.63
2023-03-11T07:42:46.741Z,96130.81
2023-03-11T07:44:48.058Z,96147.84
2023-03-11T07:46:49.475Z,96145.97
2023-03-11T07:48:50.798Z,96158.47
2023-03-11T07:50:52.172Z,96170.00
2023-03-11T07:52:56.513Z,96174.06
2023-03-11T07:54:57.914Z,96185.59
2023-03-11T07:56:59.300Z,96191.91
2023-03-11T07:59:00.686Z,96178.13
2023-03-11T08:01:03.050Z,96195.75
2023-03-11T08:03:04.474Z,96201.69
2023-03-11T08:05:05.842Z,96220.59
2023-03-11T08:07:07.249Z,96224.31
2023-03-11T08:09:09.030Z,96227.84
2023-03-11T08:11:10.363Z,96229.47
2023-03-11T08:13:11.741Z,96218.59
2023-03-11T08:15:13.094Z,96237.09
2023-03-11T08:17:14.541Z,96240.38
2023-03-11T08:19:15.884Z,96256.53
2023-03-11T08:21:17.246Z,96250.59
2023-03-11T08:23:18.798Z,96248.16
2023-03-11T08:25:20.168Z,96260.25
2023-03-11T08:27:21.517Z,96262.16
2023-03-11T08:29:22.973Z,96271.59
2023-03-11T08:31:24.468Z,96274.38
2023-03-11T08:33:25.971Z,96278.97
2023-03-11T08:35:27.368Z,96286.63
2023-03-11T08:37:28.841Z,96296.03
2023-03-11T08:39:30.312Z,96294.38
2023-03-11T08:41:31.669Z,96303.03
2023-03-11T08:43:33.018Z,96302.19
2023-03-11T08:45:34.575Z,96301.44
2023-03-11T08:47:36.246Z,96319.31
2023-03-11T08:49:37.648Z,96320.22
2023-03-11T08:51:38.992Z,96307.59
2023-03-11T08:53:40.402Z,96323.00
2023-03-11T08:55:41.752Z,96336.59
2023-03-11T08:57:43.088Z,96333.22
2023-03-11T08:59:44.430Z,96345.91
2023-03-11T09:01:46.954Z,96350.31
2023-03-11T09:03:48.291Z,96347.72
2023-03-11T09:05:49.683Z,96352.53
2023-03-11T09:07:51.021Z,96356.13
2023-03-11T09:09:52.468Z,96367.13
2023-03-11T09:11:53.820Z,96353.19
2023-03-11T09:13:55.218Z,96358.19
2023-03-11T09:15:56.585Z,96366.19
2023-03-11T09:17:59.670Z,96370.06
2023-03-11T09:20:01.004Z,96368.34
2023-03-11T09:22:02.450Z,96379.78
2023-03-11T09:24:04.345Z,96389.13
2023-03-11T09:26:05.711Z,96389.53
2023-03-11T09:28:07.079Z,96394.38
2023-03-11T09:30:08.425Z,96390.25
2023-03-11T09:32:09.857Z,96406.28
2023-03-11T09:34:11.226Z,96405.75
2023-03-11T09:36:12.611Z,96422.00
2023-03-11T09:38:14.037Z,96406.56
2023-03-11T09:40:15.388Z,96417.34
2023-03-11T09:42:16.723Z,96420.16
2023-03-11T09:44:18.133Z,96433.78
2023-03-11T09:46:19.498Z,96414.38
2023-03-11T09:48:22.719Z,96433.34
2023-03-11T09:50:24.314Z,96437.72
2023-03-11T09:52:28.811Z,96443.06
2023-03-11T09:54:30.728Z,96445.94
2023-03-11T09:56:32.118Z,96451.13
2023-03-11T09:58:33.471Z,96453.00
2023-03-11T10:00:34.810Z,96462.44
2023-03-11T10:02:36.346Z,96468.59
2023-03-11T10:04:37.764Z,96472.13
2023-03-11T10:06:39.113Z,96471.41
2023-03-11T10:08:40.498Z,96474.94
2023-03-11T10:10:41.851Z,96469.97
2023-03-11T10:12:43.212Z,96476.19
2023-03-11T10:14:44.560Z,96469.56
2023-03-11T10:16:46.081Z,96474.59
2023-03-11T10:18:47.871Z,96482.41
2023-03-11T10:20:49.252Z,96479.91
2023-03-11T10:22:50.603Z,96485.94
2023-03-11T10:24:51.920Z,96489.53
2023-03-11T10:26:53.296Z,96484.53
2023-03-11T10:28:54.661Z,96489.53
2023-03-11T10:30:55.984Z,96495.50
2023-03-11T10:32:57.384Z,96504.06
2023-03-11T10:34:58.787Z,96493.09
2023-03-11T10:37:02.178Z,96515.47
2023-03-11T10:39:03.575Z,96523.22
2023-03-11T10:41:04.912Z,96514.88
2023-03-11T10:43:06.326Z,96524.41
2023-03-11T10:45:07.676Z,96520.97
2023-03-11T10:47:12.301Z,96527.88
2023-03-11T10:49:16.600Z,96537.03
2023-03-11T10:51:22.415Z,96526.63
2023-03-11T10:53:24.044Z,96523.75
2023-03-11T10:55:25.504Z,96538.25
2023-03-11T10:57:26.980Z,96529.97
2023-03-11T10:59:28.364Z,96531.94
2023-03-11T11:01:29.858Z,96533.81
2023-03-11T11:03:31.340Z,96527.09
2023-03-11T11:05:35.762Z,96540.72
2023-03-11T11:07:37.132Z,96529.66
2023-03-11T11:09:38.472Z,96567.97
2023-03-11T11:11:39.875Z,96544.19
2023-03-11T11:13:41.221Z,96552.50
2023-03-11T11:15:42.614Z,96560.03
2023-03-11T11:17:46.716Z,96576.91
2023-03-11T11:19:48.093Z,96562.91
2023-03-11T11:21:49.562Z,96576.16
2023-03-11T11:23:52.595Z,96571.72
2023-03-11T11:25:55.084Z,96572.22
2023-03-11T11:27:56.441Z,96572.97
2023-03-11T11:29:57.855Z,96565.44
2023-03-11T11:31:59.210Z,96562.34
2023-03-11T11:34:00.551Z,96576.25
2023-03-11T11:36:04.600Z,96587.50
2023-03-11T11:38:05.989Z,96583.50
2023-03-11T11:40:11.663Z,96582.00
2023-03-11T11:42:13.068Z,96581.31
2023-03-11T11:44:14.447Z,96591.66
2023-03-11T11:46:15.879Z,96596.09
2023-03-11T11:48:17.446Z,96602.25
2023-03-11T11:50:18.763Z,96593.84
2023-03-11T11:52:20.732Z,96604.91
2023-03-11T11:54:22.221Z,96607.63
2023-03-11T11:56:23.596Z,96594.34
2023-03-11T11:58:24.935Z,96599.75
2023-03-11T12:00:28.252Z,96603.56
2023-03-11T12:02:29.696Z,96602.47
2023-03-11T12:04:37.275Z,96596.97
2023-03-11T12:06:38.665Z,96600.72
2023-03-11T12:08:40.068Z,96600.25
2023-03-11T12:10:41.700Z,96605.50
2023-03-11T12:12:43.052Z,96614.28
2023-03-11T12:14:44.380Z,96616.22
2023-03-11T12:16:45.704Z,96620.84
2023-03-11T12:18:47.204Z,96617.41
2023-03-11T12:20:48.808Z,96620.97
2023-03-11T12:22:50.308Z,96611.66
2023-03-11T12:24:51.726Z,96610.44
2023-03-11T12:26:55.854Z,96613.34
2023-03-11T12:29:00.227Z,96604.31
2023-03-11T12:31:01.633Z,96609.63
2023-03-11T12:33:03.053Z,96613.22
2023-03-11T12:35:05.457Z,96618.47
2023-03-11T12:37:06.784Z,96633.06
2023-03-11T12:39:08.586Z,96638.09
2023-03-11T12:41:10.054Z,96635.56
2023-03-11T12:43:11.427Z,96629.47
2023-03-11T12:45:12.829Z,96634.59
2023-03-11T12:47:14.154Z,96636.16
2023-03-11T12:49:18.359Z,96641.19
2023-03-11T12:51:22.852Z,96635.19
2023-03-11T12:53:24.172Z,96651.19
2023-03-11T12:55:25.691Z,96638.19
2023-03-11T12:57:27.086Z,96648.16
2023-03-11T12:59:28.453Z,96637.59
2023-03-11T13:01:29.963Z,96637.91
2023-03-11T13:03:31.333Z,96648.44
2023-03-11T13:05:32.689Z,96655.50
2023-03-11T13:07:34.042Z,96665.06
2023-03-11T13:09:35.367Z,96668.69
2023-03-11T13:11:36.765Z,96680.69
2023-03-11T13:13:38.177Z,96693.66
2023-03-11T13:15:41.796Z,96676.75
2023-03-11T13:17:43.161Z,96689.59
2023-03-11T13:19:44.534Z,96687.94
2023-03-11T13:21:45.951Z,96691.78
2023-03-11T13:23:47.278Z,96693.78
2023-03-11T13:25:49.990Z,96694.16
2023-03-11T13:27:51.342Z,96568.53
2023-03-11T13:29:52.735Z,96695.00
2023-03-11T13:31:54.209Z,96696.06
2023-03-11T13:33:55.631Z,96697.81
2023-03-11T13:35:57.264Z,96704.34
2023-03-11T13:37:58.662Z,96710.66
2023-03-11T13:39:59.986Z,96708.28
2023-03-11T13:42:02.273Z,96715.19
2023-03-11T13:44:04.394Z,96718.00
2023-03-11T13:46:05.825Z,96718.81
2023-03-11T13:48:07.230Z,96709.63
2023-03-11T13:50:08.579Z,96712.84
2023-03-11T13:52:09.965Z,96722.63
2023-03-11T13:54:11.380Z,96721.47
2023-03-11T13:56:12.721Z,96740.47
2023-03-11T13:58:14.094Z,96722.88
2023-03-11T14:00:19.960Z,96730.69
2023-03-11T14:02:21.366Z,96737.69
2023-03-11T14:04:22.781Z,96737.81
2023-03-11T14:06:24.123Z,96741.94
2023-03-11T14:08:26.855Z,96751.38
2023-03-11T14:10:28.254Z,96747.06
2023-03-11T14:12:29.580Z,96754.88
2023-03-11T14:14:30.959Z,96760.16
2023-03-11T14:16:35.260Z,96757.59
2023-03-11T14:18:36.995Z,96760.16
2023-03-11T14:20:38.367Z,96760.16
2023-03-11T14:22:39.723Z,96766.06
2023-03-11T14:24:41.147Z,96775.41
2023-03-11T14:26:48.759Z,96771.13
2023-03-11T14:28:50.114Z,96772.78
2023-03-11T14:30:51.529Z,96783.97
2023-03-11T14:32:52.880Z,96785.09
2023-03-11T14:34:54.261Z,96790.34
2023-03-11T14:36:57.179Z,96788.56
2023-03-11T14:38:58.552Z,96791.31
2023-03-11T14:41:00.470Z,96784.47
2023-03-11T14:43:02.325Z,96776.91
2023-03-11T14:45:05.102Z,96786.03
2023-03-11T14:47:06.479Z,96785.03
2023-03-11T14:49:08.001Z,96789.66
2023-03-11T14:51:09.361Z,96785.63
2023-03-11T14:53:10.697Z,96781.88
2023-03-11T14:55:12.081Z,96795.84
2023-03-11T14:57:13.441Z,96790.88
2023-03-11T14:59:14.769Z,96799.16
2023-03-11T15:01:16.491Z,96790.03
2023-03-11T15:03:20.950Z,96800.19
2023-03-11T15:05:25.133Z,96804.72
2023-03-11T15:07:26.504Z,96800.94
2023-03-11T15:09:27.860Z,96802.09
2023-03-11T15:11:29.276Z,96799.81
2023-03-11T15:13:30.666Z,96808.16
2023-03-11T15:15:32.027Z,96693.34
2023-03-11T15:17:40.226Z,96819.97
2023-03-11T15:19:45.088Z,96812.03
2023-03-11T15:21:46.468Z,96823.75
2023-03-11T15:23:50.596Z,96821.91
2023-03-11T15:25:51.984Z,96819.88
2023-03-11T15:27:53.304Z,96830.88
2023-03-11T15:29:54.680Z,96835.25
2023-03-11T15:31:57.316Z,96837.03
2023-03-11T15:34:01.338Z,96831.91
2023-03-11T15:36:02.751Z,96837.72
2023-03-11T15:38:04.109Z,96840.88
2023-03-11T15:40:07.813Z,96837.72
2023-03-11T15:42:09.784Z,96845.53
2023-03-11T15:44:11.165Z,96851.44
2023-03-11T15:46:12.602Z,96714.44
2023-03-11T15:48:14.012Z,96848.50
2023-03-11T15:50:24.234Z,96856.19
2023-03-11T15:52:26.838Z,96862.94
2023-03-11T15:54:28.222Z,96870.72
2023-03-11T15:56:33.293Z,96872.50
2023-03-11T15:58:34.664Z,96872.44
2023-03-11T16:00:35.981Z,96869.03
2023-03-11T16:04:38.735Z,96886.34
2023-03-11T16:06:40.189Z,96882.06
2023-03-11T16:08:41.560Z,96893.78
2023-03-11T16:10:42.894Z,96893.78
2023-03-11T16:12:44.309Z,96889.34
2023-03-11T16:14:46.049Z,96895.59
2023-03-11T16:16:47.385Z,96890.09
2023-03-11T16:18:51.708Z,96898.09
2023-03-11T16:20:53.067Z,96899.94
2023-03-11T16:22:57.537Z,96895.94
2023-03-11T16:24:59.444Z,96891.16
2023-03-11T16:27:00.780Z,96899.38
2023-03-11T16:29:16.483Z,96904.69
2023-03-11T16:31:20.316Z,96901.34
2023-03-11T16:33:21.766Z,96907.22
2023-03-11T16:35:23.593Z,96913.78
2023-03-11T16:37:24.989Z,96915.22
2023-03-11T16:39:26.304Z,96917.78
2023-03-11T16:41:27.641Z,96931.06
2023-03-11T16:43:29.568Z,96923.53
2023-03-11T16:45:31.016Z,96935.81
2023-03-11T16:47:32.375Z,96931.25
2023-03-11T16:49:33.712Z,96937.91
2023-03-11T16:51:35.086Z,96939.81
2023-03-11T16:53:36.455Z,96945.03
2023-03-11T16:55:40.741Z,96943.56
2023-03-11T16:57:42.052Z,96954.59
2023-03-11T16:59:43.433Z,96953.63
2023-03-11T17:01:44.884Z,96948.53
2023-03-11T17:03:48.806Z,96959.22
2023-03-11T17:05:50.264Z,96956.03
2023-03-11T17:07:51.578Z,96955.31
2023-03-11T17:09:52.960Z,96964.50
2023-03-11T17:11:57.429Z,96968.78
2023-03-11T17:14:15.179Z,96977.53
2023-03-11T17:16:17.563Z,96974.50
2023-03-11T17:18:18.917Z,96978.97
2023-03-11T17:20:23.129Z,96972.19
2023-03-11T17:22:27.461Z,96973.22
2023-03-11T17:24:28.814Z,96989.50
2023-03-11T17:26:31.633Z,96992.91
2023-03-11T17:28:32.983Z,96990.25
2023-03-11T17:30:36.889Z,96999.56
2023-03-11T17:32:38.794Z,96995.06
2023-03-11T17:34:40.200Z,97002.91
2023-03-11T17:36:41.547Z,97007.41
2023-03-11T17:38:42.875Z,97009.69
2023-03-11T17:40:44.197Z,97016.75
2023-03-11T17:42:45.589Z,97019.44
2023-03-11T17:44:51.696Z,97025.50
2023-03-11T17:46:53.574Z,97029.03
2023-03-11T17:48:54.986Z,97031.47
2023-03-11T17:50:56.370Z,97033.06
2023-03-11T17:52:57.891Z,97042.25
2023-03-11T17:54:59.309Z,97041.31
2023-03-11T17:57:00.682Z,97039.56
2023-03-11T17:59:02.022Z,97042.19
2023-03-11T18:01:06.880Z,97049.78
2023-03-11T18:03:08.280Z,97052.47
2023-03-11T18:05:09.617Z,97055.69
2023-03-11T18:07:10.953Z,97061.50
2023-03-11T18:09:12.337Z,97058.91
2023-03-11T18:11:13.665Z,97066.47
2023-03-11T18:13:14.996Z,97068.00
2023-03-11T18:15:19.360Z,97067.00
2023-03-11T18:17:21.487Z,97082.25
2023-03-11T18:19:25.905Z,97076.94
2023-03-11T18:21:27.270Z,97070.00
2023-03-11T18:23:29.653Z,97077.47
2023-03-11T18:25:30.984Z,97078.91
2023-03-11T18:27:32.353Z,97082.97
2023-03-11T18:29:33.697Z,97082.81
2023-03-11T18:31:35.120Z,97086.25
2023-03-11T18:33:36.519Z,97088.94
2023-03-11T18:35:37.983Z,97087.50
2023-03-11T18:37:39.357Z,97082.59
2023-03-11T18:39:40.734Z,97086.00
2023-03-11T18:41:42.800Z,97079.31
2023-03-11T18:43:44.125Z,97078.59
2023-03-11T18:45:45.506Z,97086.66
2023-03-11T18:47:46.880Z,97080.41
2023-03-11T18:49:48.349Z,97082.81
2023-03-11T18:51:49.709Z,97083.22
2023-03-11T18:53:51.045Z,97083.84
2023-03-11T18:55:52.509Z,97079.28
2023-03-11T18:57:53.918Z,97088.00
2023-03-11T18:59:55.443Z,97091.66
2023-03-11T19:01:56.813Z,97078.81
2023-03-11T19:04:00.924Z,97080.59
2023-03-11T19:06:02.250Z,97085.31
2023-03-11T19:08:03.648Z,97083.03
2023-03-11T19:10:04.975Z,97082.81
2023-03-11T19:12:06.341Z,97085.63
2023-03-11T19:14:07.737Z,97080.88
2023-03-11T19:16:09.119Z,97087.34
2023-03-11T19:18:10.441Z,97090.19
2023-03-11T19:20:12.874Z,97089.16
2023-03-11T19:22:14.223Z,97094.53
2023-03-11T19:24:15.623Z,97101.66
2023-03-11T19:26:20.950Z,97097.63
2023-03-11T19:28:22.436Z,97099.22
2023-03-11T19:30:23.827Z,97103.31
2023-03-11T19:32:25.275Z,97106.84
2023-03-11T19:34:28.884Z,97102.59
2023-03-11T19:36:30.334Z,97101.81
2023-03-11T19:38:31.696Z,97108.63
2023-03-11T19:40:33.706Z,97115.53
2023-03-11T19:42:35.114Z,97116.47
2023-03-11T19:44:36.738Z,97123.22
2023-03-11T19:46:41.221Z,97114.63
2023-03-11T19:48:45.671Z,97128.16
2023-03-11T19:50:47.046Z,97126.16
2023-03-11T19:52:48.479Z,97129.03
2023-03-11T19:54:50.305Z,97130.69
2023-03-11T19:56:51.674Z,97136.09
2023-03-11T19:58:53.020Z,97137.47
2023-03-11T20:00:54.372Z,97131.28
2023-03-11T20:02:58.874Z,97136.00
2023-03-11T20:05:00.421Z,97140.75
2023-03-11T20:07:01.962Z,97125.28
2023-03-11T20:09:05.960Z,97131.22
2023-03-11T20:11:07.359Z,97123.38
2023-03-11T20:13:08.713Z,97132.94
2023-03-11T20:15:10.086Z,97132.97
2023-03-11T20:17:11.467Z,97127.53
2023-03-11T20:19:18.837Z,97138.72
2023-03-11T20:21:20.223Z,97135.41
2023-03-11T20:23:21.555Z,97135.50
2023-03-11T20:25:22.931Z,97144.91
2023-03-11T20:27:24.271Z,97139.28
2023-03-11T20:29:25.759Z,97142.28
2023-03-11T20:31:29.872Z,97138.75
2023-03-11T20:33:32.319Z,97146.09
2023-03-11T20:35:33.706Z,97142.56
2023-03-11T20:37:35.108Z,97139.13
2023-03-11T20:39:36.475Z,97143.41
2023-03-11T20:41:38.156Z,97140.03
2023-03-11T20:43:39.502Z,97147.81
2023-03-11T20:45:40.944Z,97146.19
2023-03-11T20:47:43.836Z,97144.44
2023-03-11T20:49:45.244Z,97143.69
2023-03-11T20:51:48.190Z,97139.47
2023-03-11T20:53:49.607Z,97139.91
2023-03-11T20:55:50.988Z,97147.56
2023-03-11T20:57:54.496Z,97148.41
2023-03-11T20:59:55.865Z,97160.47
2023-03-11T21:01:57.303Z,97151.97
2023-03-11T21:03:58.807Z,97165.28
2023-03-11T21:06:02.947Z,97165.81
2023-03-11T21:08:07.046Z,97168.66
2023-03-11T21:10:08.870Z,97182.94
2023-03-11T21:12:10.217Z,97155.47
2023-03-11T21:14:11.668Z,97158.66
2023-03-11T21:16:13.219Z,97170.22
2023-03-11T21:18:14.722Z,97169.41
2023-03-11T21:20:16.784Z,97156.88
2023-03-11T21:22:18.218Z,97161.81
2023-03-11T21:24:19.722Z,97158.66
2023-03-11T21:26:21.119Z,97159.47
2023-03-11T21:28:22.619Z,97161.28
2023-03-11T21:30:24.098Z,97155.34
2023-03-11T21:32:25.544Z,97153.97
2023-03-11T21:34:27.105Z,97156.16
2023-03-11T21:36:28.788Z,97148.69
2023-03-11T21:38:30.338Z,97150.41
2023-03-11T21:40:31.796Z,97152.50
2023-03-11T21:42:33.119Z,97145.41
2023-03-11T21:44:34.666Z,97150.16
2023-03-11T21:46:38.841Z,97157.72
2023-03-11T21:48:40.236Z,97148.88
2023-03-11T21:50:44.060Z,97155.63
2023-03-11T21:52:45.511Z,97151.22
2023-03-11T21:54:46.928Z,97150.53
2023-03-11T21:56:48.369Z,97148.59
2023-03-11T21:58:49.944Z,97144.06
2023-03-11T22:00:51.578Z,97143.09
2023-03-11T22:02:52.995Z,97142.22
2023-03-11T22:04:54.622Z,97137.91
2023-03-11T22:06:57.311Z,97142.03
2023-03-11T22:08:58.900Z,97137.72
2023-03-11T22:11:00.376Z,97136.03
2023-03-11T22:13:01.840Z,97141.25
2023-03-11T22:15:03.217Z,97150.53
2023-03-11T22:17:04.727Z,97141.25
2023-03-11T22:19:08.925Z,97143.34
2023-03-11T22:21:12.945Z,97135.28
2023-03-11T22:23:14.318Z,97140.06
2023-03-11T22:25:15.690Z,97139.34
2023-03-11T22:27:17.035Z,97143.72
2023-03-11T22:29:18.405Z,97148.22
2023-03-11T22:31:19.826Z,97138.09
2023-03-11T22:33:21.186Z,97138.84
2023-03-11T22:35:22.530Z,97141.03
2023-03-11T22:37:23.880Z,97147.47
2023-03-11T22:39:26.758Z,97145.53
2023-03-11T22:41:28.134Z,97149.34
2023-03-11T22:43:29.459Z,97157.16
2023-03-11T22:45:30.790Z,97158.88
2023-03-11T22:47:32.169Z,97150.88
2023-03-11T22:49:36.258Z,97157.47
2023-03-11T22:51:37.610Z,97156.53
2023-03-11T22:53:38.963Z,97153.22
2023-03-11T22:55:40.377Z,97156.13
2023-03-11T22:57:44.752Z,97157.22
2023-03-11T22:59:46.097Z,97166.63
2023-03-11T23:01:50.357Z,97157.84
2023-03-11T23:03:51.739Z,97166.22
2023-03-11T23:05:53.141Z,97161.31
2023-03-11T23:07:54.490Z,97165.88
2023-03-11T23:09:55.837Z,97174.72
2023-03-11T23:11:57.198Z,97178.38
2023-03-11T23:13:59.760Z,97173.06
2023-03-11T23:16:01.088Z,97169.47
2023-03-11T23:18:02.478Z,97162.63
2023-03-11T23:20:04.059Z,97159.84
2023-03-11T23:22:05.492Z,97164.34
2023-03-11T23:24:07.085Z,97162.69
2023-03-11T23:26:08.653Z,97158.34
2023-03-11T23:28:09.992Z,97149.97
2023-03-11T23:30:11.327Z,97177.19
2023-03-11T23:32:12.672Z,97151.97
2023-03-11T23:34:14.001Z,97161.44
2023-03-11T23:36:15.375Z,97162.16
2023-03-11T23:38:16.721Z,97171.59
2023-03-11T23:40:18.070Z,97171.53
2023-03-11T23:42:25.949Z,97175.44
2023-03-11T23:44:27.707Z,97170.44
2023-03-11T23:46:29.070Z,97156.53
2023-03-11T23:48:30.491Z,97169.13
2023-03-11T23:50:31.842Z,97165.94
2023-03-11T23:52:33.171Z,97173.59
2023-03-11T23:54:34.517Z,97170.22